sensor_id;sensor_type;location;lat;lon;timestamp;pressure;altitude;pressure_sealevel;temperature;humidity
57568;BME280;43403;51.948;5.922;2023-05-21T00:01:23;101841.47;;;16.19;80.22
57568;BME280;43403;51.948;5.922;2023-05-21T00:03:51;101846.44;;;16.23;79.90
57568;BME280;43403;51.948;5.922;2023-05-21T00:06:18;101836.03;;;16.21;79.99
57568;BME280;43403;51.948;5.922;2023-05-21T00:08:46;101837.03;;;16.28;79.67
57568;BME280;43403;51.948;5.922;2023-05-21T00:11:12;101841.88;;;16.33;77.98
57568;BME280;43403;51.948;5.922;2023-05-21T00:13:39;101834.22;;;16.30;78.82
57568;BME280;43403;51.948;5.922;2023-05-21T00:16:06;101830.78;;;16.37;77.62
57568;BME280;43403;51.948;5.922;2023-05-21T00:18:33;101826.16;;;16.39;76.90
57568;BME280;43403;51.948;5.922;2023-05-21T00:20:59;101828.50;;;16.43;77.70
57568;BME280;43403;51.948;5.922;2023-05-21T00:23:26;101822.84;;;16.37;79.52
57568;BME280;43403;51.948;5.922;2023-05-21T00:25:53;101821.69;;;16.40;78.18
57568;BME280;43403;51.948;5.922;2023-05-21T00:28:20;101815.41;;;16.41;78.74
57568;BME280;43403;51.948;5.922;2023-05-21T00:30:46;101817.03;;;16.42;78.75
57568;BME280;43403;51.948;5.922;2023-05-21T00:33:13;101807.97;;;16.45;79.49
57568;BME280;43403;51.948;5.922;2023-05-21T00:35:40;101808.78;;;16.45;78.58
57568;BME280;43403;51.948;5.922;2023-05-21T00:38:07;101806.47;;;16.42;78.57
57568;BME280;43403;51.948;5.922;2023-05-21T00:40:35;101803.16;;;16.40;79.29
57568;BME280;43403;51.948;5.922;2023-05-21T00:43:01;101801.31;;;16.40;78.59
57568;BME280;43403;51.948;5.922;2023-05-21T00:45:28;101811.59;;;16.44;79.43
57568;BME280;43403;51.948;5.922;2023-05-21T00:47:55;101803.28;;;16.38;79.28
57568;BME280;43403;51.948;5.922;2023-05-21T00:50:22;101796.19;;;16.39;79.94
57568;BME280;43403;51.948;5.922;2023-05-21T00:52:48;101792.03;;;16.36;81.12
57568;BME280;43403;51.948;5.922;2023-05-21T00:55:15;101794.03;;;16.34;80.93
57568;BME280;43403;51.948;5.922;2023-05-21T00:57:42;101789.38;;;16.36;80.32
57568;BME280;43403;51.948;5.922;2023-05-21T01:00:09;101784.44;;;16.33;80.11
57568;BME280;43403;51.948;5.922;2023-05-21T01:02:37;101792.72;;;16.38;80.43
57568;BME280;43403;51.948;5.922;2023-05-21T01:05:04;101792.38;;;16.33;80.93
57568;BME280;43403;51.948;5.922;2023-05-21T01:07:33;101794.50;;;16.30;81.82
57568;BME280;43403;51.948;5.922;2023-05-21T01:10:07;101785.09;;;16.27;81.78
57568;BME280;43403;51.948;5.922;2023-05-21T01:12:35;101789.22;;;16.30;81.43
57568;BME280;43403;51.948;5.922;2023-05-21T01:15:04;101789.53;;;16.27;81.50
57568;BME280;43403;51.948;5.922;2023-05-21T01:17:31;101785.38;;;16.24;81.56
57568;BME280;43403;51.948;5.922;2023-05-21T01:20:00;101795.50;;;16.29;82.06
57568;BME280;43403;51.948;5.922;2023-05-21T01:22:27;101786.88;;;16.27;83.17
57568;BME280;43403;51.948;5.922;2023-05-21T01:24:57;101781.25;;;16.21;83.98
57568;BME280;43403;51.948;5.922;2023-05-21T01:27:24;101777.59;;;16.23;83.04
57568;BME280;43403;51.948;5.922;2023-05-21T01:29:50;101788.03;;;16.24;83.25
57568;BME280;43403;51.948;5.922;2023-05-21T01:35:34;101779.44;;;16.22;84.60
57568;BME280;43403;51.948;5.922;2023-05-21T01:38:19;101778.75;;;16.20;84.52
57568;BME280;43403;51.948;5.922;2023-05-21T01:40:52;101771.63;;;16.20;84.17
57568;BME280;43403;51.948;5.922;2023-05-21T01:43:21;101765.53;;;16.20;82.74
57568;BME280;43403;51.948;5.922;2023-05-21T01:45:51;101769.50;;;16.24;83.99
57568;BME280;43403;51.948;5.922;2023-05-21T01:48:21;101759.25;;;16.21;83.26
57568;BME280;43403;51.948;5.922;2023-05-21T01:50:49;101773.81;;;16.25;84.23
57568;BME280;43403;51.948;5.922;2023-05-21T01:53:16;101765.38;;;16.21;85.01
57568;BME280;43403;51.948;5.922;2023-05-21T01:55:43;101764.03;;;16.17;84.76
57568;BME280;43403;51.948;5.922;2023-05-21T01:58:09;101756.75;;;16.11;85.81
57568;BME280;43403;51.948;5.922;2023-05-21T02:00:37;101766.00;;;16.15;84.21
57568;BME280;43403;51.948;5.922;2023-05-21T02:03:05;101762.38;;;16.16;85.06
57568;BME280;43403;51.948;5.922;2023-05-21T02:05:31;101763.53;;;16.14;84.90
57568;BME280;43403;51.948;5.922;2023-05-21T02:07:58;101764.16;;;16.08;84.82
57568;BME280;43403;51.948;5.922;2023-05-21T02:10:25;101762.50;;;16.07;84.13
57568;BME280;43403;51.948;5.922;2023-05-21T02:12:52;101764.31;;;16.06;85.84
57568;BME280;43403;51.948;5.922;2023-05-21T02:15:18;101762.31;;;16.00;86.72
57568;BME280;43403;51.948;5.922;2023-05-21T02:17:45;101757.47;;;15.95;86.37
57568;BME280;43403;51.948;5.922;2023-05-21T02:20:12;101759.50;;;16.01;87.06
57568;BME280;43403;51.948;5.922;2023-05-21T02:22:41;101763.66;;;16.04;85.97
57568;BME280;43403;51.948;5.922;2023-05-21T02:25:09;101754.69;;;16.05;86.01
57568;BME280;43403;51.948;5.922;2023-05-21T02:27:37;101752.53;;;16.00;88.44
57568;BME280;43403;51.948;5.922;2023-05-21T02:30:06;101748.94;;;16.01;85.76
57568;BME280;43403;51.948;5.922;2023-05-21T02:32:34;101754.38;;;16.00;87.68
57568;BME280;43403;51.948;5.922;2023-05-21T02:35:02;101755.34;;;15.99;88.58
57568;BME280;43403;51.948;5.922;2023-05-21T02:37:30;101757.03;;;16.00;86.86
57568;BME280;43403;51.948;5.922;2023-05-21T02:40:01;101755.34;;;15.99;88.22
57568;BME280;43403;51.948;5.922;2023-05-21T02:42:29;101750.91;;;15.99;87.76
57568;BME280;43403;51.948;5.922;2023-05-21T02:44:56;101762.47;;;15.98;88.04
57568;BME280;43403;51.948;5.922;2023-05-21T02:47:23;101761.78;;;15.96;88.77
57568;BME280;43403;51.948;5.922;2023-05-21T02:49:51;101756.31;;;15.90;90.04
57568;BME280;43403;51.948;5.922;2023-05-21T02:52:19;101754.34;;;15.92;89.41
57568;BME280;43403;51.948;5.922;2023-05-21T02:54:47;101751.84;;;15.90;89.49
57568;BME280;43403;51.948;5.922;2023-05-21T02:57:14;101747.88;;;15.86;91.11
57568;BME280;43403;51.948;5.922;2023-05-21T02:59:41;101753.00;;;15.88;91.26
57568;BME280;43403;51.948;5.922;2023-05-21T03:02:07;101744.38;;;15.86;89.11
57568;BME280;43403;51.948;5.922;2023-05-21T03:04:34;101745.38;;;15.85;90.73
57568;BME280;43403;51.948;5.922;2023-05-21T03:07:04;101751.34;;;15.87;89.95
57568;BME280;43403;51.948;5.922;2023-05-21T03:09:31;101752.50;;;15.84;90.71
57568;BME280;43403;51.948;5.922;2023-05-21T03:11:58;101749.16;;;15.82;91.81
57568;BME280;43403;51.948;5.922;2023-05-21T03:14:24;101751.47;;;15.85;88.28
57568;BME280;43403;51.948;5.922;2023-05-21T03:16:50;101743.69;;;15.84;90.46
57568;BME280;43403;51.948;5.922;2023-05-21T03:19:17;101748.16;;;15.83;93.39
57568;BME280;43403;51.948;5.922;2023-05-21T03:21:44;101736.25;;;15.79;89.45
57568;BME280;43403;51.948;5.922;2023-05-21T03:24:10;101742.22;;;15.81;92.46
57568;BME280;43403;51.948;5.922;2023-05-21T03:26:38;101749.16;;;15.82;91.48
57568;BME280;43403;51.948;5.922;2023-05-21T03:29:05;101748.16;;;15.83;91.71
57568;BME280;43403;51.948;5.922;2023-05-21T03:31:32;101735.59;;;15.77;93.25
57568;BME280;43403;51.948;5.922;2023-05-21T03:33:58;101738.84;;;15.71;94.42
57568;BME280;43403;51.948;5.922;2023-05-21T03:36:25;101732.41;;;15.73;92.49
57568;BME280;43403;51.948;5.922;2023-05-21T03:38:51;101732.72;;;15.70;94.23
57568;BME280;43403;51.948;5.922;2023-05-21T03:41:18;101731.88;;;15.70;94.10
57568;BME280;43403;51.948;5.922;2023-05-21T03:43:44;101727.88;;;15.66;94.68
57568;BME280;43403;51.948;5.922;2023-05-21T03:46:11;101726.75;;;15.68;93.62
57568;BME280;43403;51.948;5.922;2023-05-21T03:48:37;101733.16;;;15.66;95.03
57568;BME280;43403;51.948;5.922;2023-05-21T03:51:04;101726.38;;;15.63;93.42
57568;BME280;43403;51.948;5.922;2023-05-21T03:53:32;101732.50;;;15.63;94.29
57568;BME280;43403;51.948;5.922;2023-05-21T03:55:59;101730.38;;;15.67;93.31
57568;BME280;43403;51.948;5.922;2023-05-21T03:58:25;101729.03;;;15.63;94.76
57568;BME280;43403;51.948;5.922;2023-05-21T04:00:53;101731.38;;;15.66;93.54
57568;BME280;43403;51.948;5.922;2023-05-21T04:03:19;101731.38;;;15.66;92.53
57568;BME280;43403;51.948;5.922;2023-05-21T04:05:46;101739.31;;;15.66;95.14
57568;BME280;43403;51.948;5.922;2023-05-21T04:08:13;101737.28;;;15.60;96.03
57568;BME280;43403;51.948;5.922;2023-05-21T04:10:41;101738.13;;;15.60;94.48
57568;BME280;43403;51.948;5.922;2023-05-21T04:13:07;101737.28;;;15.60;97.36
57568;BME280;43403;51.948;5.922;2023-05-21T04:15:34;101734.63;;;15.60;95.11
57568;BME280;43403;51.948;5.922;2023-05-21T04:18:01;101744.22;;;15.61;94.99
57568;BME280;43403;51.948;5.922;2023-05-21T04:20:27;101749.81;;;15.58;96.53
57568;BME280;43403;51.948;5.922;2023-05-21T04:22:54;101749.34;;;15.54;97.65
57568;BME280;43403;51.948;5.922;2023-05-21T04:25:21;101748.53;;;15.62;93.41
57568;BME280;43403;51.948;5.922;2023-05-21T04:27:48;101750.69;;;15.58;96.94
57568;BME280;43403;51.948;5.922;2023-05-21T04:30:15;101750.34;;;15.61;97.93
57568;BME280;43403;51.948;5.922;2023-05-21T04:32:42;101753.81;;;15.62;96.54
57568;BME280;43403;51.948;5.922;2023-05-21T04:35:11;101743.41;;;15.60;96.54
57568;BME280;43403;51.948;5.922;2023-05-21T04:37:40;101743.75;;;15.66;96.19
57568;BME280;43403;51.948;5.922;2023-05-21T04:40:08;101752.88;;;15.71;98.86
57568;BME280;43403;51.948;5.922;2023-05-21T04:42:35;101749.41;;;15.71;98.12
57568;BME280;43403;51.948;5.922;2023-05-21T04:45:02;101743.13;;;15.72;98.12
57568;BME280;43403;51.948;5.922;2023-05-21T04:47:28;101749.03;;;15.66;100.00
57568;BME280;43403;51.948;5.922;2023-05-21T04:49:55;101749.72;;;15.68;97.51
57568;BME280;43403;51.948;5.922;2023-05-21T04:52:22;101753.88;;;15.70;97.96
57568;BME280;43403;51.948;5.922;2023-05-21T04:54:50;101750.78;;;15.75;97.05
57568;BME280;43403;51.948;5.922;2023-05-21T04:57:17;101744.28;;;15.69;99.13
57568;BME280;43403;51.948;5.922;2023-05-21T04:59:43;101749.56;;;15.69;100.00
57568;BME280;43403;51.948;5.922;2023-05-21T05:02:10;101741.44;;;15.62;100.00
57568;BME280;43403;51.948;5.922;2023-05-21T05:04:36;101747.31;;;15.74;96.95
57568;BME280;43403;51.948;5.922;2023-05-21T05:07:03;101744.81;;;15.73;99.68
57568;BME280;43403;51.948;5.922;2023-05-21T05:09:30;101746.31;;;15.75;100.00
57568;BME280;43403;51.948;5.922;2023-05-21T05:11:56;101743.81;;;15.74;100.00
57568;BME280;43403;51.948;5.922;2023-05-21T05:14:23;101750.13;;;15.73;100.00
57568;BME280;43403;51.948;5.922;2023-05-21T05:16:49;101753.94;;;15.78;100.00
57568;BME280;43403;51.948;5.922;2023-05-21T05:19:16;101746.31;;;15.75;100.00
57568;BME280;43403;51.948;5.922;2023-05-21T05:21:43;101741.53;;;15.79;99.58
57568;BME280;43403;51.948;5.922;2023-05-21T05:24:09;101735.28;;;15.80;100.00
57568;BME280;43403;51.948;5.922;2023-05-21T05:26:36;101739.06;;;15.86;100.00
57568;BME280;43403;51.948;5.922;2023-05-21T05:29:02;101738.25;;;15.85;98.61
57568;BME280;43403;51.948;5.922;2023-05-21T05:31:29;101737.13;;;15.88;100.00
57568;BME280;43403;51.948;5.922;2023-05-21T05:33:56;101740.75;;;15.87;100.00
57568;BME280;43403;51.948;5.922;2023-05-21T05:36:23;101744.06;;;15.89;100.00
57568;BME280;43403;51.948;5.922;2023-05-21T05:38:50;101737.94;;;15.88;100.00
57568;BME280;43403;51.948;5.922;2023-05-21T05:41:17;101746.88;;;15.95;100.00
57568;BME280;43403;51.948;5.922;2023-05-21T05:43:44;101747.41;;;15.99;100.00
57568;BME280;43403;51.948;5.922;2023-05-21T05:46:11;101746.94;;;16.04;100.00
57568;BME280;43403;51.948;5.922;2023-05-21T05:48:38;101739.34;;;16.09;100.00
57568;BME280;43403;51.948;5.922;2023-05-21T05:51:05;101733.38;;;16.07;100.00
57568;BME280;43403;51.948;5.922;2023-05-21T05:53:31;101730.44;;;16.10;100.00
57568;BME280;43403;51.948;5.922;2023-05-21T05:55:58;101731.41;;;16.09;100.00
57568;BME280;43403;51.948;5.922;2023-05-21T05:58:25;101733.91;;;16.18;98.25
57568;BME280;43403;51.948;5.922;2023-05-21T06:00:52;101729.50;;;16.27;99.62
57568;BME280;43403;51.948;5.922;2023-05-21T06:03:18;101736.13;;;16.31;99.43
57568;BME280;43403;51.948;5.922;2023-05-21T06:05:46;101739.22;;;16.27;100.00
57568;BME280;43403;51.948;5.922;2023-05-21T06:08:12;101742.72;;;16.27;100.00
57568;BME280;43403;51.948;5.922;2023-05-21T06:10:39;101736.63;;;16.35;100.00
57568;BME280;43403;51.948;5.922;2023-05-21T06:13:06;101731.66;;;16.40;100.00
57568;BME280;43403;51.948;5.922;2023-05-21T06:15:33;101738.63;;;16.49;99.38
57568;BME280;43403;51.948;5.922;2023-05-21T06:18:00;101738.47;;;16.51;100.00
57568;BME280;43403;51.948;5.922;2023-05-21T06:20:27;101736.00;;;16.57;98.48
57568;BME280;43403;51.948;5.922;2023-05-21T06:22:55;101734.66;;;16.70;99.64
57568;BME280;43403;51.948;5.922;2023-05-21T06:25:21;101741.78;;;16.77;97.29
57568;BME280;43403;51.948;5.922;2023-05-21T06:27:48;101739.50;;;16.91;96.27
57568;BME280;43403;51.948;5.922;2023-05-21T06:30:15;101741.50;;;16.97;96.67
57568;BME280;43403;51.948;5.922;2023-05-21T06:32:42;101743.31;;;17.05;96.51
57568;BME280;43403;51.948;5.922;2023-05-21T06:35:08;101738.66;;;17.15;95.37
57568;BME280;43403;51.948;5.922;2023-05-21T06:37:35;101745.47;;;17.26;91.96
57568;BME280;43403;51.948;5.922;2023-05-21T06:40:02;101744.28;;;17.36;92.35
57568;BME280;43403;51.948;5.922;2023-05-21T06:42:29;101739.31;;;17.42;92.92
57568;BME280;43403;51.948;5.922;2023-05-21T06:44:56;101743.59;;;17.51;92.06
57568;BME280;43403;51.948;5.922;2023-05-21T06:47:22;101746.06;;;17.61;90.65
57568;BME280;43403;51.948;5.922;2023-05-21T06:49:49;101736.72;;;17.73;90.09
57568;BME280;43403;51.948;5.922;2023-05-21T06:52:15;101739.69;;;17.86;91.09
57568;BME280;43403;51.948;5.922;2023-05-21T06:54:42;101726.56;;;17.93;88.97
57568;BME280;43403;51.948;5.922;2023-05-21T06:57:09;101731.00;;;18.01;88.27
57568;BME280;43403;51.948;5.922;2023-05-21T06:59:35;101726.50;;;18.01;89.71
57568;BME280;43403;51.948;5.922;2023-05-21T07:02:02;101731.31;;;18.06;88.39
57568;BME280;43403;51.948;5.922;2023-05-21T07:04:30;101731.28;;;18.14;88.93
57568;BME280;43403;51.948;5.922;2023-05-21T07:06:56;101720.59;;;18.22;89.49
57568;BME280;43403;51.948;5.922;2023-05-21T07:09:23;101723.41;;;18.29;87.04
57568;BME280;43403;51.948;5.922;2023-05-21T07:11:49;101714.25;;;18.31;86.77
57568;BME280;43403;51.948;5.922;2023-05-21T07:14:18;101716.19;;;18.37;86.18
57568;BME280;43403;51.948;5.922;2023-05-21T07:16:44;101708.97;;;18.46;85.51
57568;BME280;43403;51.948;5.922;2023-05-21T07:19:11;101708.31;;;18.52;84.95
57568;BME280;43403;51.948;5.922;2023-05-21T07:21:38;101708.75;;;18.56;85.01
57568;BME280;43403;51.948;5.922;2023-05-21T07:24:08;101714.03;;;18.64;84.06
57568;BME280;43403;51.948;5.922;2023-05-21T07:26:34;101709.81;;;18.70;83.00
57568;BME280;43403;51.948;5.922;2023-05-21T07:29:01;101711.13;;;18.74;84.77
57568;BME280;43403;51.948;5.922;2023-05-21T07:31:27;101708.91;;;18.77;83.60
57568;BME280;43403;51.948;5.922;2023-05-21T07:33:54;101701.56;;;18.88;82.83
57568;BME280;43403;51.948;5.922;2023-05-21T07:36:21;101693.03;;;18.92;84.86
57568;BME280;43403;51.948;5.922;2023-05-21T07:38:47;101705.59;;;18.99;82.60
57568;BME280;43403;51.948;5.922;2023-05-21T07:41:14;101704.41;;;19.01;83.21
57568;BME280;43403;51.948;5.922;2023-05-21T07:43:43;101705.19;;;19.10;82.66
57568;BME280;43403;51.948;5.922;2023-05-21T07:46:10;101707.28;;;19.14;81.36
57568;BME280;43403;51.948;5.922;2023-05-21T07:48:37;101703.53;;;19.24;80.46
57568;BME280;43403;51.948;5.922;2023-05-21T07:51:04;101697.03;;;19.26;81.85
57568;BME280;43403;51.948;5.922;2023-05-21T07:53:30;101700.22;;;19.36;81.83
57568;BME280;43403;51.948;5.922;2023-05-21T07:55:58;101698.25;;;19.39;80.87
57568;BME280;43403;51.948;5.922;2023-05-21T07:58:25;101692.19;;;19.45;80.59
57568;BME280;43403;51.948;5.922;2023-05-21T08:00:52;101701.69;;;19.54;80.48
57568;BME280;43403;51.948;5.922;2023-05-21T08:03:19;101688.69;;;19.59;81.27
57568;BME280;43403;51.948;5.922;2023-05-21T08:05:46;101698.41;;;19.67;79.10
57568;BME280;43403;51.948;5.922;2023-05-21T08:08:17;101689.22;;;19.69;77.56
57568;BME280;43403;51.948;5.922;2023-05-21T08:10:45;101681.91;;;19.71;78.91
57568;BME280;43403;51.948;5.922;2023-05-21T08:13:12;101684.44;;;19.80;78.48
57568;BME280;43403;51.948;5.922;2023-05-21T08:15:38;101687.66;;;19.90;77.71
57568;BME280;43403;51.948;5.922;2023-05-21T08:18:05;101680.94;;;19.94;77.49
57568;BME280;43403;51.948;5.922;2023-05-21T08:20:32;101678.63;;;20.06;79.62
57568;BME280;43403;51.948;5.922;2023-05-21T08:22:59;101676.84;;;20.13;77.54
57568;BME280;43403;51.948;5.922;2023-05-21T08:25:26;101678.88;;;20.32;77.68
57568;BME280;43403;51.948;5.922;2023-05-21T08:27:53;101681.13;;;20.50;74.39
57568;BME280;43403;51.948;5.922;2023-05-21T08:30:19;101677.84;;;20.70;72.90
57568;BME280;43403;51.948;5.922;2023-05-21T08:32:47;101680.25;;;20.93;74.80
57568;BME280;43403;51.948;5.922;2023-05-21T08:35:13;101692.31;;;21.17;72.48
57568;BME280;43403;51.948;5.922;2023-05-21T08:37:40;101681.34;;;21.40;70.90
57568;BME280;43403;51.948;5.922;2023-05-21T08:40:07;101680.72;;;21.66;69.80
57568;BME280;43403;51.948;5.922;2023-05-21T08:42:45;101685.75;;;21.96;67.49
57568;BME280;43403;51.948;5.922;2023-05-21T08:45:12;101673.44;;;22.02;67.14
57568;BME280;43403;51.948;5.922;2023-05-21T08:47:43;101684.41;;;22.34;68.83
57568;BME280;43403;51.948;5.922;2023-05-21T08:50:11;101684.22;;;22.48;66.71
57568;BME280;43403;51.948;5.922;2023-05-21T08:52:38;101677.44;;;22.73;65.69
57568;BME280;43403;51.948;5.922;2023-05-21T08:55:07;101681.13;;;22.92;64.49
57568;BME280;43403;51.948;5.922;2023-05-21T08:57:33;101683.81;;;23.05;63.49
57568;BME280;43403;51.948;5.922;2023-05-21T09:00:00;101675.97;;;23.23;62.43
57568;BME280;43403;51.948;5.922;2023-05-21T09:02:28;101668.72;;;23.37;61.80
57568;BME280;43403;51.948;5.922;2023-05-21T09:04:59;101678.78;;;23.42;60.81
57568;BME280;43403;51.948;5.922;2023-05-21T09:07:30;101675.84;;;23.50;61.78
57568;BME280;43403;51.948;5.922;2023-05-21T09:10:02;101670.50;;;23.57;60.87
57568;BME280;43403;51.948;5.922;2023-05-21T09:12:31;101669.69;;;23.56;60.66
57568;BME280;43403;51.948;5.922;2023-05-21T09:14:59;101669.22;;;23.66;60.33
57568;BME280;43403;51.948;5.922;2023-05-21T09:17:26;101672.69;;;23.73;60.14
57568;BME280;43403;51.948;5.922;2023-05-21T09:20:23;101669.38;;;23.84;60.11
57568;BME280;43403;51.948;5.922;2023-05-21T09:22:50;101663.78;;;23.86;59.96
57568;BME280;43403;51.948;5.922;2023-05-21T09:25:23;101658.72;;;24.03;61.06
57568;BME280;43403;51.948;5.922;2023-05-21T09:27:50;101660.03;;;24.25;59.57
57568;BME280;43403;51.948;5.922;2023-05-21T09:30:17;101658.69;;;24.41;58.23
57568;BME280;43403;51.948;5.922;2023-05-21T09:32:53;101658.94;;;24.65;58.44
57568;BME280;43403;51.948;5.922;2023-05-21T09:35:21;101655.06;;;24.79;57.76
57568;BME280;43403;51.948;5.922;2023-05-21T09:37:49;101657.34;;;25.01;58.22
57568;BME280;43403;51.948;5.922;2023-05-21T09:40:19;101653.44;;;25.22;57.13
57568;BME280;43403;51.948;5.922;2023-05-21T09:42:47;101651.88;;;25.33;57.22
57568;BME280;43403;51.948;5.922;2023-05-21T09:47:48;101652.66;;;25.52;55.91
57568;BME280;43403;51.948;5.922;2023-05-21T09:50:23;101645.94;;;25.61;54.57
57568;BME280;43403;51.948;5.922;2023-05-21T09:52:50;101643.91;;;25.75;54.53
57568;BME280;43403;51.948;5.922;2023-05-21T09:55:21;101649.31;;;25.87;54.92
57568;BME280;43403;51.948;5.922;2023-05-21T09:57:48;101644.47;;;25.95;54.30
57568;BME280;43403;51.948;5.922;2023-05-21T10:02:48;101638.06;;;26.08;53.18
57568;BME280;43403;51.948;5.922;2023-05-21T10:05:16;101642.84;;;26.06;54.05
57568;BME280;43403;51.948;5.922;2023-05-21T10:07:48;101638.69;;;26.22;53.72
57568;BME280;43403;51.948;5.922;2023-05-21T10:10:20;101636.34;;;26.26;53.55
57568;BME280;43403;51.948;5.922;2023-05-21T10:12:54;101632.28;;;26.23;53.59
57568;BME280;43403;51.948;5.922;2023-05-21T10:15:26;101638.88;;;26.09;53.85
57568;BME280;43403;51.948;5.922;2023-05-21T10:17:54;101639.59;;;26.16;54.10
57568;BME280;43403;51.948;5.922;2023-05-21T10:20:21;101631.28;;;26.06;52.73
57568;BME280;43403;51.948;5.922;2023-05-21T10:22:49;101640.06;;;26.13;53.42
57568;BME280;43403;51.948;5.922;2023-05-21T10:25:16;101635.88;;;26.17;53.00
57568;BME280;43403;51.948;5.922;2023-05-21T10:27:43;101634.03;;;26.29;52.88
57568;BME280;43403;51.948;5.922;2023-05-21T10:30:10;101622.34;;;26.35;52.84
57568;BME280;43403;51.948;5.922;2023-05-21T10:32:39;101628.06;;;26.39;52.83
57568;BME280;43403;51.948;5.922;2023-05-21T10:35:06;101625.50;;;26.56;52.13
57568;BME280;43403;51.948;5.922;2023-05-21T10:37:34;101628.34;;;26.61;52.73
57568;BME280;43403;51.948;5.922;2023-05-21T10:40:00;101621.09;;;26.61;52.64
57568;BME280;43403;51.948;5.922;2023-05-21T10:47:52;101615.00;;;26.78;52.03
57568;BME280;43403;51.948;5.922;2023-05-21T10:59:29;101611.72;;;27.40;51.32
57568;BME280;43403;51.948;5.922;2023-05-21T11:01:59;101610.84;;;27.51;51.14
57568;BME280;43403;51.948;5.922;2023-05-21T11:04:28;101613.22;;;27.48;50.68
57568;BME280;43403;51.948;5.922;2023-05-21T11:06:57;101609.81;;;27.52;50.71
57568;BME280;43403;51.948;5.922;2023-05-21T11:09:25;101610.19;;;27.44;50.33
57568;BME280;43403;51.948;5.922;2023-05-21T11:11:56;101604.63;;;27.63;50.08
57568;BME280;43403;51.948;5.922;2023-05-21T11:14:33;101599.06;;;27.69;50.01
57568;BME280;43403;51.948;5.922;2023-05-21T11:19:36;101596.34;;;27.98;50.20
57568;BME280;43403;51.948;5.922;2023-05-21T11:22:09;101597.91;;;28.11;50.54
57568;BME280;43403;51.948;5.922;2023-05-21T11:24:37;101584.59;;;28.21;49.73
57568;BME280;43403;51.948;5.922;2023-05-21T11:27:04;101576.00;;;28.24;48.64
57568;BME280;43403;51.948;5.922;2023-05-21T11:29:40;101582.63;;;28.33;48.94
57568;BME280;43403;51.948;5.922;2023-05-21T11:32:08;101571.16;;;28.43;49.04
57568;BME280;43403;51.948;5.922;2023-05-21T11:34:45;101579.56;;;28.64;49.38
57568;BME280;43403;51.948;5.922;2023-05-21T11:39:46;101569.72;;;28.74;49.39
57568;BME280;43403;51.948;5.922;2023-05-21T11:42:37;101568.97;;;28.79;48.31
57568;BME280;43403;51.948;5.922;2023-05-21T11:45:05;101564.53;;;28.90;48.76
57568;BME280;43403;51.948;5.922;2023-05-21T11:47:32;101569.94;;;29.12;48.63
57568;BME280;43403;51.948;5.922;2023-05-21T11:50:01;101561.63;;;29.18;48.33
57568;BME280;43403;51.948;5.922;2023-05-21T11:52:31;101565.81;;;29.31;48.19
57568;BME280;43403;51.948;5.922;2023-05-21T11:54:58;101561.78;;;29.34;47.30
57568;BME280;43403;51.948;5.922;2023-05-21T11:57:26;101563.84;;;29.49;47.07
57568;BME280;43403;51.948;5.922;2023-05-21T11:59:59;101556.59;;;29.54;48.05
57568;BME280;43403;51.948;5.922;2023-05-21T12:02:30;101550.78;;;29.68;48.72
57568;BME280;43403;51.948;5.922;2023-05-21T12:04:57;101546.03;;;29.80;47.86
57568;BME280;43403;51.948;5.922;2023-05-21T12:07:27;101549.06;;;29.89;46.46
57568;BME280;43403;51.948;5.922;2023-05-21T12:09:55;101548.28;;;29.88;46.89
57568;BME280;43403;51.948;5.922;2023-05-21T12:12:24;101544.53;;;29.94;46.68
57568;BME280;43403;51.948;5.922;2023-05-21T12:14:54;101542.44;;;30.07;46.36
57568;BME280;43403;51.948;5.922;2023-05-21T12:17:23;101543.78;;;29.99;46.04
57568;BME280;43403;51.948;5.922;2023-05-21T12:19:51;101548.44;;;30.14;46.11
57568;BME280;43403;51.948;5.922;2023-05-21T12:22:19;101547.84;;;30.02;45.37
57568;BME280;43403;51.948;5.922;2023-05-21T12:24:46;101540.38;;;30.19;46.39
57568;BME280;43403;51.948;5.922;2023-05-21T12:27:14;101537.13;;;30.22;45.85
57568;BME280;43403;51.948;5.922;2023-05-21T12:29:43;101542.03;;;30.25;45.49
57568;BME280;43403;51.948;5.922;2023-05-21T12:32:11;101533.91;;;30.25;46.96
57568;BME280;43403;51.948;5.922;2023-05-21T12:34:52;101534.81;;;30.36;45.59
57568;BME280;43403;51.948;5.922;2023-05-21T12:37:26;101530.22;;;30.37;45.89
57568;BME280;43403;51.948;5.922;2023-05-21T12:39:54;101528.06;;;30.39;45.58
57568;BME280;43403;51.948;5.922;2023-05-21T12:42:25;101525.72;;;30.52;46.75
57568;BME280;43403;51.948;5.922;2023-05-21T12:44:52;101525.16;;;30.50;46.21
57568;BME280;43403;51.948;5.922;2023-05-21T12:47:22;101514.09;;;30.57;45.55
57568;BME280;43403;51.948;5.922;2023-05-21T12:49:49;101511.41;;;30.62;45.47
57568;BME280;43403;51.948;5.922;2023-05-21T12:52:20;101501.94;;;30.65;44.82
57568;BME280;43403;51.948;5.922;2023-05-21T12:54:52;101513.00;;;30.63;45.52
57568;BME280;43403;51.948;5.922;2023-05-21T12:57:21;101502.78;;;30.70;45.13
57568;BME280;43403;51.948;5.922;2023-05-21T12:59:58;101498.97;;;30.66;45.24
57568;BME280;43403;51.948;5.922;2023-05-21T13:02:27;101505.13;;;30.51;45.13
57568;BME280;43403;51.948;5.922;2023-05-21T13:04:57;101498.03;;;30.40;44.73
57568;BME280;43403;51.948;5.922;2023-05-21T13:07:25;101505.91;;;30.47;46.19
57568;BME280;43403;51.948;5.922;2023-05-21T13:09:52;101500.75;;;30.45;46.23
57568;BME280;43403;51.948;5.922;2023-05-21T13:12:20;101490.75;;;30.41;45.97
57568;BME280;43403;51.948;5.922;2023-05-21T13:14:49;101498.34;;;30.49;46.19
57568;BME280;43403;51.948;5.922;2023-05-21T13:17:17;101501.13;;;30.64;45.92
57568;BME280;43403;51.948;5.922;2023-05-21T13:19:45;101500.59;;;30.72;45.88
57568;BME280;43403;51.948;5.922;2023-05-21T13:22:11;101497.41;;;30.86;44.86